Terminal Aerodrome Forecast
Issued by NWS

Home | Current Version | Previous Version | Text Only | Print | Product List | Glossary On
Versions: 1 2 3 4 5 6 7 8 9 10 11 12 13 14 15 16 17 18 19 20 21
000
FTUS43 KILX 210000 AAA
TAFBMI
TAF AMD
KBMI 210049Z 2101/2124 24008KT P6SM VCTS SCT030CB
      TEMPO 2101/2102 4SM TSRA BKN030CB
     FM210300 24008KT P6SM SCT040
     FM210600 27008KT 6SM BR SCT045
     FM211200 30013KT P6SM SCT030
     FM211600 31016G24KT P6SM BKN030=

USA.gov is the U.S. government's official web portal to all federal, state and local government web resources and services.